KAVX/AVX METAR and TAF weather

Enter ICAO airport designator
Station Type Date Time Source
KAVX METAR 2021/04/13 22:51 UTC NOAA

KAVX 132251Z AUTO 25008KT M1/4SM FG VV001 11/10 A2991 RMK AO2 SLP127 T01060100


Station Type Date Time Source
KAVX Decoded METAR 2021/04/13 22:51 UTC NOAA

AVALON CATALINA AIRPORT, CA, United States (KAVX) 33-24N 118-25W 482M
Apr 13, 2021 - 06:51 PM EDT / 2021.04.13 2251 UTC
Wind: from the WSW (250 degrees) at 9 MPH (8 KT):0
Visibility: less than 1/4 mile(s):1
Sky conditions: obscured
Weather: fog
Temperature: 51.1 F (10.6 C)
Dew Point: 50.0 F (10.0 C)
Relative Humidity: 96%
Pressure (altimeter): 29.91 in. Hg (1012 hPa)
ob: KAVX 132251Z AUTO 25008KT M1/4SM FG VV001 11/10 A2991 RMK AO2 SLP127 T01060100
cycle: 23

Station Type Date Time Source
KAVX TAF UTC NOAA

Error!

Example: see airport list